createdAt,value
2023-06-30T00:01:06.822Z,6.13
2023-06-30T00:03:34.890Z,5.70
2023-06-30T00:06:02.932Z,6.00
2023-06-30T00:08:30.868Z,6.83
2023-06-30T00:10:58.967Z,7.30
2023-06-30T00:13:27.129Z,5.67
2023-06-30T00:15:55.598Z,6.27
2023-06-30T00:18:25.127Z,6.20
2023-06-30T00:20:55.640Z,5.80
2023-06-30T00:23:23.589Z,6.10
2023-06-30T00:25:51.612Z,6.60
2023-06-30T00:28:19.814Z,7.33
2023-06-30T00:30:47.769Z,9.43
2023-06-30T00:33:15.696Z,11.37
2023-06-30T00:35:45.277Z,10.40
2023-06-30T00:38:13.496Z,12.37
2023-06-30T00:40:41.384Z,13.83
2023-06-30T00:43:10.308Z,15.33
2023-06-30T00:45:38.190Z,15.73
2023-06-30T00:48:07.029Z,14.87
2023-06-30T00:50:35.290Z,17.10
2023-06-30T00:53:05.776Z,14.90
2023-06-30T00:55:34.326Z,17.77
2023-06-30T00:58:02.430Z,17.53
2023-06-30T01:00:30.358Z,17.00
2023-06-30T01:03:03.995Z,16.33
2023-06-30T01:05:38.528Z,15.80
2023-06-30T01:08:14.345Z,16.10
2023-06-30T01:10:43.872Z,16.43
2023-06-30T01:13:12.204Z,16.37
2023-06-30T01:15:44.495Z,15.63
2023-06-30T01:18:13.870Z,17.27
2023-06-30T01:20:42.366Z,18.23
2023-06-30T01:23:14.429Z,18.27
2023-06-30T01:25:42.904Z,18.90
2023-06-30T01:28:12.881Z,17.10
2023-06-30T01:30:40.849Z,18.03
2023-06-30T01:33:09.002Z,16.63
2023-06-30T01:35:37.067Z,17.83
2023-06-30T01:38:05.053Z,17.23
2023-06-30T01:40:34.605Z,17.07
2023-06-30T01:43:02.655Z,18.17
2023-06-30T01:45:31.141Z,20.53
2023-06-30T01:47:59.459Z,17.70
2023-06-30T01:50:30.723Z,18.53
2023-06-30T01:52:58.702Z,18.43
2023-06-30T01:55:26.893Z,20.80
2023-06-30T01:57:56.151Z,19.07
2023-06-30T02:00:24.149Z,18.43
2023-06-30T02:02:52.108Z,19.00
2023-06-30T02:05:20.096Z,19.37
2023-06-30T02:07:48.000Z,17.83
2023-06-30T02:10:15.980Z,17.10
2023-06-30T02:12:45.537Z,18.30
2023-06-30T02:15:14.887Z,17.30
2023-06-30T02:17:42.886Z,18.10
2023-06-30T02:20:12.203Z,17.90
2023-06-30T02:22:40.245Z,17.37
2023-06-30T02:25:08.779Z,17.67
2023-06-30T02:27:36.708Z,17.20
2023-06-30T02:30:06.764Z,19.73
2023-06-30T02:32:39.718Z,18.57
2023-06-30T02:35:09.014Z,16.93
2023-06-30T02:37:37.936Z,17.67
2023-06-30T02:40:07.150Z,18.30
2023-06-30T02:42:35.139Z,17.50
2023-06-30T02:45:05.008Z,18.13
2023-06-30T02:47:33.768Z,17.60
2023-06-30T02:50:03.888Z,17.30
2023-06-30T02:52:34.271Z,18.50
2023-06-30T02:55:03.443Z,17.40
2023-06-30T02:57:32.312Z,19.53
2023-06-30T03:00:00.621Z,17.63
2023-06-30T03:02:28.808Z,18.20
2023-06-30T03:04:57.870Z,18.23
2023-06-30T03:07:28.525Z,18.73
2023-06-30T03:09:57.401Z,17.70
2023-06-30T03:12:26.055Z,17.77
2023-06-30T03:14:54.673Z,17.63
2023-06-30T03:17:24.566Z,18.07
2023-06-30T03:19:53.218Z,18.27
2023-06-30T03:22:21.769Z,18.63
2023-06-30T03:24:51.112Z,17.83
2023-06-30T03:27:18.980Z,17.60
2023-06-30T03:29:46.966Z,18.80
2023-06-30T03:32:15.335Z,18.33
2023-06-30T03:34:43.283Z,17.57
2023-06-30T03:37:11.150Z,17.63
2023-06-30T03:39:39.757Z,18.90
2023-06-30T03:42:09.861Z,19.03
2023-06-30T03:44:39.498Z,18.77
2023-06-30T03:47:07.767Z,18.20
2023-06-30T03:49:35.912Z,18.47
2023-06-30T03:52:05.604Z,17.63
2023-06-30T03:54:34.478Z,17.40
2023-06-30T03:57:02.350Z,18.63
2023-06-30T03:59:31.892Z,17.13
2023-06-30T04:01:59.815Z,17.50
2023-06-30T04:04:27.923Z,19.30
2023-06-30T04:06:56.943Z,18.13
2023-06-30T04:09:24.986Z,17.90
2023-06-30T04:11:53.171Z,18.17
2023-06-30T04:14:21.456Z,18.83
2023-06-30T04:16:50.743Z,16.90
2023-06-30T04:19:18.741Z,18.73
2023-06-30T04:21:47.999Z,17.70
2023-06-30T04:24:15.894Z,18.60
2023-06-30T04:26:43.862Z,19.43
2023-06-30T04:29:11.810Z,17.90
2023-06-30T04:31:39.652Z,17.83
2023-06-30T04:34:09.152Z,17.60
2023-06-30T04:36:37.088Z,19.27
2023-06-30T04:39:05.366Z,18.20
2023-06-30T04:41:33.311Z,18.43
2023-06-30T04:44:01.357Z,19.03
2023-06-30T04:46:29.673Z,18.63
2023-06-30T04:48:57.896Z,18.17
2023-06-30T04:51:27.607Z,19.30
2023-06-30T04:53:55.536Z,18.23
2023-06-30T04:56:23.601Z,18.03
2023-06-30T04:58:52.360Z,18.20
2023-06-30T05:01:20.530Z,16.70
2023-06-30T05:03:48.949Z,18.57
2023-06-30T05:06:17.023Z,19.10
2023-06-30T05:08:46.329Z,19.10
2023-06-30T05:11:14.286Z,18.20
2023-06-30T05:13:42.241Z,18.27
2023-06-30T05:16:12.323Z,18.63
2023-06-30T05:18:40.841Z,19.07
2023-06-30T05:21:09.302Z,17.67
2023-06-30T05:23:37.184Z,19.57
2023-06-30T05:26:06.964Z,17.97
2023-06-30T05:28:36.677Z,17.20
2023-06-30T05:31:04.723Z,17.20
2023-06-30T05:33:32.683Z,18.40
2023-06-30T05:36:00.621Z,18.50
2023-06-30T05:38:28.586Z,18.77
2023-06-30T05:40:56.555Z,17.27
2023-06-30T05:43:25.774Z,18.50
2023-06-30T05:45:53.701Z,16.80
2023-06-30T05:48:21.757Z,16.97
2023-06-30T05:50:49.875Z,16.13
2023-06-30T05:53:17.765Z,16.67
2023-06-30T05:55:45.974Z,18.10
2023-06-30T05:58:14.324Z,17.47
2023-06-30T06:00:43.611Z,17.67
2023-06-30T06:03:11.840Z,15.57
2023-06-30T06:05:40.042Z,17.87
2023-06-30T06:08:08.178Z,18.13
2023-06-30T06:10:36.060Z,17.20
2023-06-30T06:13:04.004Z,17.30
2023-06-30T06:15:32.121Z,17.80
2023-06-30T06:18:01.530Z,15.93
2023-06-30T06:20:29.609Z,17.07
2023-06-30T06:22:57.604Z,17.77
2023-06-30T06:25:25.557Z,17.80
2023-06-30T06:27:53.420Z,17.10
2023-06-30T06:30:21.344Z,18.37
2023-06-30T06:32:49.307Z,18.23
2023-06-30T06:35:18.962Z,16.40
2023-06-30T06:37:46.853Z,18.27
2023-06-30T06:40:14.751Z,15.60
2023-06-30T06:42:42.725Z,17.37
2023-06-30T06:45:11.197Z,17.17
2023-06-30T06:48:19.474Z,16.20
2023-06-30T06:50:48.914Z,16.63
2023-06-30T06:53:20.198Z,15.67
2023-06-30T06:55:49.180Z,17.17
2023-06-30T06:58:17.174Z,16.53
2023-06-30T07:00:46.236Z,16.43
2023-06-30T07:03:14.180Z,16.53
2023-06-30T07:05:42.433Z,16.43
2023-06-30T07:08:11.905Z,16.20
2023-06-30T07:10:39.936Z,18.13
2023-06-30T07:13:08.226Z,18.27
2023-06-30T07:15:36.519Z,16.13
2023-06-30T07:18:05.009Z,16.77
2023-06-30T07:20:33.136Z,15.23
2023-06-30T07:23:01.139Z,16.53
2023-06-30T07:25:30.496Z,17.23
2023-06-30T07:27:59.299Z,15.37
2023-06-30T07:30:28.105Z,14.93
2023-06-30T07:32:56.452Z,15.30
2023-06-30T07:35:25.139Z,15.30
2023-06-30T07:37:53.168Z,15.73
2023-06-30T07:40:23.985Z,15.50
2023-06-30T07:42:54.512Z,15.87
2023-06-30T07:45:22.606Z,15.67
2023-06-30T07:47:50.611Z,16.70
2023-06-30T07:50:18.564Z,16.03
2023-06-30T07:52:49.006Z,16.27
2023-06-30T07:55:18.117Z,16.40
2023-06-30T07:57:46.405Z,16.17
2023-06-30T08:00:19.242Z,15.83
2023-06-30T08:02:48.274Z,15.93
2023-06-30T08:05:16.508Z,16.93
2023-06-30T08:07:48.959Z,15.87
2023-06-30T08:10:18.960Z,15.83
2023-06-30T08:12:46.968Z,15.13
2023-06-30T08:15:16.366Z,15.87
2023-06-30T08:17:51.335Z,14.67
2023-06-30T08:20:23.830Z,15.80
2023-06-30T08:22:52.041Z,15.67
2023-06-30T08:25:21.868Z,15.43
2023-06-30T08:27:49.832Z,15.70
2023-06-30T08:30:22.061Z,15.10
2023-06-30T08:32:52.634Z,16.27
2023-06-30T08:35:20.632Z,15.33
2023-06-30T08:37:52.018Z,15.20
2023-06-30T08:40:22.174Z,15.33
2023-06-30T08:42:52.399Z,14.80
2023-06-30T08:45:25.068Z,13.87
2023-06-30T08:47:53.455Z,14.87
2023-06-30T08:50:22.834Z,14.60
2023-06-30T08:52:51.020Z,15.13
2023-06-30T08:55:19.043Z,14.90
2023-06-30T08:57:47.264Z,15.70
2023-06-30T09:00:16.280Z,14.63
2023-06-30T09:02:46.016Z,14.63
2023-06-30T09:05:14.333Z,15.17
2023-06-30T09:07:47.738Z,14.67
2023-06-30T09:10:16.233Z,14.60
2023-06-30T09:12:47.537Z,15.80
2023-06-30T09:15:16.935Z,15.07
2023-06-30T09:17:46.277Z,15.03
2023-06-30T09:20:15.308Z,15.23
2023-06-30T09:22:55.175Z,15.27
2023-06-30T09:25:39.410Z,14.97
2023-06-30T09:28:11.132Z,16.10
2023-06-30T09:30:41.740Z,16.93
2023-06-30T09:33:11.052Z,16.23
2023-06-30T09:35:39.866Z,15.93
2023-06-30T09:38:12.197Z,18.23
2023-06-30T09:40:40.614Z,17.83
2023-06-30T09:43:09.108Z,18.80
2023-06-30T09:45:37.249Z,18.20
2023-06-30T09:48:07.944Z,18.33
2023-06-30T09:50:37.763Z,18.63
2023-06-30T09:53:06.675Z,20.20
2023-06-30T09:55:34.594Z,19.67
2023-06-30T09:58:02.561Z,27.83
2023-06-30T10:00:36.366Z,21.33
2023-06-30T10:03:06.356Z,20.67
2023-06-30T10:05:34.460Z,22.27
2023-06-30T10:08:03.929Z,21.93
2023-06-30T10:10:31.930Z,21.63
2023-06-30T10:13:00.683Z,21.40
2023-06-30T10:15:28.857Z,21.23
2023-06-30T10:17:56.927Z,22.87
2023-06-30T10:20:38.090Z,22.13
2023-06-30T10:23:14.256Z,22.17
2023-06-30T10:25:42.481Z,21.67
2023-06-30T10:28:10.635Z,22.40
2023-06-30T10:30:39.454Z,24.20
2023-06-30T10:33:07.712Z,23.57
2023-06-30T10:35:36.841Z,25.53
2023-06-30T10:38:04.973Z,24.93
2023-06-30T10:40:34.372Z,23.70
2023-06-30T10:43:02.296Z,23.93
2023-06-30T10:45:31.720Z,26.20
2023-06-30T10:47:59.838Z,24.93
2023-06-30T10:50:27.741Z,27.07
2023-06-30T10:52:56.376Z,25.40
2023-06-30T10:55:24.950Z,22.07
2023-06-30T10:57:55.854Z,23.83
2023-06-30T11:00:25.801Z,22.60
2023-06-30T11:02:58.408Z,22.10
2023-06-30T11:05:27.620Z,22.17
2023-06-30T11:07:56.563Z,21.87
2023-06-30T11:10:28.854Z,21.23
2023-06-30T11:12:58.795Z,21.60
2023-06-30T11:15:37.295Z,23.60
2023-06-30T11:18:07.341Z,21.90
2023-06-30T11:20:35.426Z,24.93
2023-06-30T11:23:04.866Z,23.93
2023-06-30T11:25:33.975Z,22.47
2023-06-30T11:28:05.736Z,22.67
2023-06-30T11:30:38.197Z,23.17
2023-06-30T11:33:07.312Z,24.13
2023-06-30T11:35:36.537Z,21.13
2023-06-30T11:38:04.973Z,23.03
2023-06-30T11:40:32.900Z,25.87
2023-06-30T11:43:04.105Z,24.43
2023-06-30T11:45:32.057Z,23.43
2023-06-30T11:48:00.040Z,24.27
2023-06-30T11:50:31.358Z,24.07
2023-06-30T11:53:00.104Z,23.73
2023-06-30T11:55:29.176Z,23.53
2023-06-30T11:57:57.340Z,23.23
2023-06-30T12:00:27.130Z,23.57
2023-06-30T12:02:59.755Z,23.37
2023-06-30T12:05:28.912Z,24.33
2023-06-30T12:07:58.271Z,26.83
2023-06-30T12:10:39.541Z,23.87
2023-06-30T12:13:08.684Z,23.40
2023-06-30T12:15:42.513Z,26.77
2023-06-30T12:18:10.656Z,24.83
2023-06-30T12:20:41.890Z,23.47
2023-06-30T12:23:09.952Z,23.97
2023-06-30T12:25:38.296Z,20.70
2023-06-30T12:28:06.583Z,15.77
2023-06-30T12:30:35.458Z,10.90
2023-06-30T12:33:05.153Z,9.03
2023-06-30T12:35:35.654Z,8.17
2023-06-30T12:38:05.629Z,8.27
2023-06-30T12:40:33.594Z,7.43
2023-06-30T12:43:01.603Z,7.40
2023-06-30T12:45:29.569Z,8.17
2023-06-30T12:47:57.531Z,7.83
2023-06-30T12:50:26.788Z,8.50
2023-06-30T12:52:54.697Z,8.60
2023-06-30T12:55:23.036Z,7.57
2023-06-30T12:57:51.035Z,8.07
2023-06-30T13:00:19.621Z,7.73
2023-06-30T13:02:47.526Z,6.67
2023-06-30T13:05:15.633Z,6.33
2023-06-30T13:07:45.576Z,6.27
2023-06-30T13:10:14.735Z,6.40
2023-06-30T13:12:42.728Z,7.20
2023-06-30T13:15:11.140Z,5.67
2023-06-30T13:17:39.132Z,6.47
2023-06-30T13:20:09.053Z,6.47
2023-06-30T13:22:42.717Z,6.47
2023-06-30T13:25:20.578Z,7.77
2023-06-30T13:27:48.595Z,10.23
2023-06-30T13:30:16.568Z,7.07
2023-06-30T13:32:45.032Z,7.40
2023-06-30T13:35:13.011Z,6.63
2023-06-30T13:37:40.988Z,7.07
2023-06-30T13:40:10.152Z,7.50
2023-06-30T13:42:39.403Z,7.93
2023-06-30T13:45:10.976Z,8.33
2023-06-30T13:47:39.285Z,8.03
2023-06-30T13:50:08.410Z,7.90
2023-06-30T13:52:36.276Z,8.00
2023-06-30T13:55:04.417Z,7.73
2023-06-30T13:57:32.392Z,8.43
2023-06-30T14:00:01.981Z,8.47
2023-06-30T14:02:33.627Z,8.67
2023-06-30T14:05:01.707Z,7.90
2023-06-30T14:07:29.880Z,8.03
2023-06-30T14:09:59.331Z,8.63
2023-06-30T14:12:27.282Z,8.77
2023-06-30T14:14:55.162Z,8.63
2023-06-30T14:17:24.814Z,7.93
2023-06-30T14:19:52.671Z,7.87
2023-06-30T14:22:20.706Z,8.10
2023-06-30T14:24:48.788Z,8.30
2023-06-30T14:27:16.803Z,7.43
2023-06-30T14:29:44.866Z,8.17
2023-06-30T14:32:12.860Z,7.83
2023-06-30T14:34:43.190Z,6.73
2023-06-30T14:37:11.153Z,8.20
2023-06-30T14:39:39.096Z,6.10
2023-06-30T14:42:11.145Z,6.57
2023-06-30T14:44:44.230Z,5.40
2023-06-30T14:47:12.072Z,6.70
2023-06-30T14:49:39.964Z,6.20
2023-06-30T14:52:09.469Z,5.37
2023-06-30T14:54:37.550Z,5.30
2023-06-30T14:57:05.727Z,8.00
2023-06-30T14:59:33.726Z,6.00
2023-06-30T15:02:01.678Z,5.00
2023-06-30T15:04:29.618Z,5.50
2023-06-30T15:06:57.594Z,4.33
2023-06-30T15:09:26.871Z,3.97
2023-06-30T15:11:54.748Z,4.10
2023-06-30T15:14:22.676Z,5.40
2023-06-30T15:16:50.619Z,6.13
2023-06-30T15:19:18.588Z,3.53
2023-06-30T15:21:46.530Z,3.73
2023-06-30T15:24:14.462Z,3.60
2023-06-30T15:26:44.416Z,3.17
2023-06-30T15:29:12.299Z,4.50
2023-06-30T15:31:40.806Z,3.27
2023-06-30T15:34:09.053Z,4.07
2023-06-30T15:36:36.918Z,4.57
2023-06-30T15:39:05.303Z,3.63
2023-06-30T15:41:33.216Z,3.57
2023-06-30T15:44:02.484Z,4.20
2023-06-30T15:46:30.674Z,3.43
2023-06-30T15:48:58.680Z,3.00
2023-06-30T15:51:26.671Z,3.63
2023-06-30T15:53:54.656Z,3.97
2023-06-30T15:56:22.929Z,5.67
2023-06-30T15:58:50.864Z,4.07
2023-06-30T16:01:20.209Z,4.53
2023-06-30T16:03:48.195Z,4.27
2023-06-30T16:06:16.141Z,3.50
2023-06-30T16:08:44.069Z,2.93
2023-06-30T16:11:13.275Z,4.47
2023-06-30T16:13:41.124Z,4.63
2023-06-30T16:16:09.136Z,3.10
2023-06-30T16:18:38.571Z,3.23
2023-06-30T16:21:06.403Z,3.40
2023-06-30T16:23:34.541Z,4.67
2023-06-30T16:26:02.497Z,3.53
2023-06-30T16:28:30.413Z,5.17
2023-06-30T16:30:58.425Z,5.90
2023-06-30T16:33:26.466Z,4.30
2023-06-30T16:35:55.856Z,5.50
2023-06-30T16:38:23.754Z,8.03
2023-06-30T16:40:51.643Z,3.27
2023-06-30T16:43:19.554Z,4.20
2023-06-30T16:45:48.360Z,3.30
2023-06-30T16:48:16.395Z,4.43
2023-06-30T16:50:44.316Z,3.07
2023-06-30T16:53:13.570Z,3.40
2023-06-30T16:55:41.641Z,3.03
2023-06-30T16:58:09.582Z,5.40
2023-06-30T17:00:37.534Z,4.73
2023-06-30T17:03:05.537Z,3.53
2023-06-30T17:05:33.545Z,3.97
2023-06-30T17:08:01.406Z,4.73
2023-06-30T17:10:31.357Z,5.23
2023-06-30T17:12:59.946Z,3.37
2023-06-30T17:15:28.261Z,3.50
2023-06-30T17:17:56.259Z,3.73
2023-06-30T17:20:24.124Z,3.23
2023-06-30T17:22:52.085Z,4.53
2023-06-30T17:25:20.018Z,4.03
2023-06-30T17:27:49.321Z,5.27
2023-06-30T17:30:17.368Z,3.00
2023-06-30T17:32:45.310Z,3.47
2023-06-30T17:35:13.334Z,3.50
2023-06-30T17:37:41.232Z,5.20
2023-06-30T17:40:09.983Z,4.37
2023-06-30T17:42:37.916Z,4.07
2023-06-30T17:45:08.412Z,3.73
2023-06-30T17:47:36.418Z,4.27
2023-06-30T17:50:04.469Z,5.40
2023-06-30T17:52:32.603Z,5.13
2023-06-30T17:55:00.533Z,3.60
2023-06-30T17:57:28.652Z,3.13
2023-06-30T17:59:56.640Z,3.37
2023-06-30T18:02:26.025Z,3.17
2023-06-30T18:04:54.281Z,3.20
2023-06-30T18:07:22.395Z,3.50
2023-06-30T18:09:50.459Z,3.13
2023-06-30T18:12:18.321Z,2.93
2023-06-30T18:14:46.226Z,3.90
2023-06-30T18:17:16.114Z,3.97
2023-06-30T18:19:45.369Z,4.37
2023-06-30T18:22:14.417Z,3.47
2023-06-30T18:24:42.407Z,4.67
2023-06-30T18:27:10.368Z,4.80
2023-06-30T18:29:40.309Z,3.03
2023-06-30T18:32:09.029Z,3.37
2023-06-30T18:34:37.035Z,4.40
2023-06-30T18:37:08.575Z,3.20
2023-06-30T18:39:36.669Z,3.40
2023-06-30T18:42:04.972Z,5.53
2023-06-30T18:44:32.895Z,3.10
2023-06-30T18:47:01.740Z,3.53
2023-06-30T18:49:29.613Z,3.00
2023-06-30T18:51:57.552Z,4.17
2023-06-30T18:54:26.828Z,5.57
2023-06-30T18:56:54.704Z,3.37
2023-06-30T18:59:23.669Z,3.37
2023-06-30T19:01:51.856Z,7.67
2023-06-30T19:04:20.046Z,5.37
2023-06-30T19:06:48.610Z,5.63
2023-06-30T19:09:17.610Z,3.60
2023-06-30T19:11:46.953Z,5.07
2023-06-30T19:14:15.130Z,4.17
2023-06-30T19:16:43.021Z,5.80
2023-06-30T19:19:10.991Z,5.17
2023-06-30T19:21:38.972Z,4.63
2023-06-30T19:24:07.579Z,5.73
2023-06-30T19:26:35.815Z,3.13
2023-06-30T19:29:05.516Z,4.53
2023-06-30T19:31:33.543Z,5.07
2023-06-30T19:34:01.412Z,4.10
2023-06-30T19:36:32.720Z,5.50
2023-06-30T19:39:00.781Z,5.63
2023-06-30T19:41:28.833Z,5.43
2023-06-30T19:43:56.821Z,4.83
2023-06-30T19:46:27.958Z,5.97
2023-06-30T19:48:55.974Z,6.43
2023-06-30T19:51:23.972Z,6.37
2023-06-30T19:53:51.880Z,4.63
2023-06-30T19:56:19.965Z,5.30
2023-06-30T19:58:47.986Z,6.53
2023-06-30T20:01:18.097Z,4.37
2023-06-30T20:03:47.763Z,3.40
2023-06-30T20:06:15.788Z,4.63
2023-06-30T20:08:43.777Z,5.67
2023-06-30T20:11:13.155Z,5.27
2023-06-30T20:13:41.719Z,6.40
2023-06-30T20:16:10.414Z,5.90
2023-06-30T20:18:38.486Z,5.20
2023-06-30T20:21:07.779Z,4.47
2023-06-30T20:23:35.678Z,5.57
2023-06-30T20:26:03.673Z,6.00
2023-06-30T20:28:31.609Z,4.63
2023-06-30T20:30:59.817Z,6.90
2023-06-30T20:33:27.922Z,4.80
2023-06-30T20:35:56.907Z,5.90
2023-06-30T20:38:26.365Z,4.93
2023-06-30T20:40:54.348Z,4.77
2023-06-30T20:43:22.317Z,4.53
2023-06-30T20:45:50.269Z,4.50
2023-06-30T20:48:18.148Z,3.90
2023-06-30T20:50:46.242Z,4.47
2023-06-30T20:53:14.402Z,4.10
2023-06-30T20:55:43.668Z,4.97
2023-06-30T20:58:11.581Z,5.23
2023-06-30T21:00:39.510Z,3.83
2023-06-30T21:03:07.573Z,3.90
2023-06-30T21:05:35.563Z,4.87
2023-06-30T21:08:03.518Z,4.87
2023-06-30T21:10:31.491Z,5.23
2023-06-30T21:13:01.927Z,3.67
2023-06-30T21:15:29.967Z,5.53
2023-06-30T21:17:57.959Z,6.37
2023-06-30T21:20:25.936Z,6.30
2023-06-30T21:22:53.771Z,4.20
2023-06-30T21:25:21.851Z,6.27
2023-06-30T21:27:49.840Z,4.60
2023-06-30T21:30:19.305Z,4.50
2023-06-30T21:32:47.901Z,6.60
2023-06-30T21:35:15.893Z,5.23
2023-06-30T21:37:43.723Z,5.93
2023-06-30T21:40:13.922Z,7.77
2023-06-30T21:42:41.882Z,6.77
2023-06-30T21:45:10.376Z,7.03
2023-06-30T21:47:39.675Z,6.23
2023-06-30T21:50:08.754Z,6.67
2023-06-30T21:52:36.739Z,9.17
2023-06-30T21:55:05.062Z,6.70
2023-06-30T21:57:32.958Z,5.57
2023-06-30T22:00:00.871Z,5.97
2023-06-30T22:02:28.941Z,4.73
2023-06-30T22:04:58.677Z,4.23
2023-06-30T22:07:26.636Z,4.33
2023-06-30T22:09:54.684Z,4.57
2023-06-30T22:12:22.616Z,6.43
2023-06-30T22:14:50.564Z,4.40
2023-06-30T22:17:18.463Z,5.07
2023-06-30T22:19:46.353Z,4.07
2023-06-30T22:22:15.744Z,3.97
2023-06-30T22:24:43.701Z,3.93
2023-06-30T22:27:11.667Z,4.13
2023-06-30T22:29:39.614Z,3.97
2023-06-30T22:32:08.308Z,5.27
2023-06-30T22:34:36.229Z,4.87
2023-06-30T22:37:04.417Z,3.10
2023-06-30T22:39:33.755Z,3.73
2023-06-30T22:42:01.800Z,4.03
2023-06-30T22:44:29.974Z,4.07
2023-06-30T22:46:58.004Z,6.23
2023-06-30T22:49:25.980Z,6.30
2023-06-30T22:51:54.143Z,4.43
2023-06-30T22:54:22.057Z,3.40
2023-06-30T22:56:51.333Z,4.07
2023-06-30T22:59:19.316Z,5.30
2023-06-30T23:01:47.218Z,4.93
2023-06-30T23:04:15.310Z,3.50
2023-06-30T23:06:43.265Z,4.17
2023-06-30T23:09:11.224Z,4.07
2023-06-30T23:11:39.206Z,7.23
2023-06-30T23:14:08.475Z,6.27
2023-06-30T23:16:39.265Z,4.53
2023-06-30T23:19:08.121Z,3.73
2023-06-30T23:21:37.008Z,4.83
2023-06-30T23:24:10.438Z,4.00
2023-06-30T23:26:38.855Z,4.33
2023-06-30T23:29:09.633Z,5.23
2023-06-30T23:31:39.451Z,8.60
2023-06-30T23:34:07.578Z,5.63
2023-06-30T23:36:36.062Z,4.57
2023-06-30T23:39:04.290Z,4.93
2023-06-30T23:41:33.781Z,5.60
2023-06-30T23:44:02.361Z,5.13
2023-06-30T23:46:31.873Z,5.63
2023-06-30T23:49:00.081Z,4.23
2023-06-30T23:51:28.082Z,4.67
2023-06-30T23:53:55.993Z,4.97
2023-06-30T23:56:23.899Z,5.30
2023-06-30T23:58:51.800Z,4.30
